CDT,Max TemperatureF,Mean TemperatureF,Min TemperatureF,Max Dew PointF,MeanDew PointF,Min DewpointF,Max Humidity, Mean Humidity, Min Humidity, Max Sea Level PressureIn, Mean Sea Level PressureIn, Min Sea Level PressureIn, Max VisibilityMiles, Mean VisibilityMiles, Min VisibilityMiles, Max Wind SpeedMPH, Mean Wind SpeedMPH, Max Gust SpeedMPH,PrecipitationIn, CloudCover, Events, WindDirDegrees
2014-3-1,69,57,45,60,51,44,100,84,68,30.04,29.97,29.92,7,4,2,12,6,15,0.00,7,,86
2014-3-2,66,47,27,63,44,25,100,94,87,30.21,30.02,29.92,10,4,1,14,6,18,7.63,8,Rain-Snow-Thunderstorm,326
2014-3-3,30,25,19,23,19,12,88,79,69,30.42,30.35,30.24,10,9,2,16,8,17,T,,,4
2014-3-4,46,35,23,26,21,18,96,65,33,30.32,30.18,30.09,10,10,8,8,3,13,0.00,0,,88
2014-3-5,53,38,23,37,28,22,100,65,30,30.16,30.11,30.06,10,8,3,12,4,16,0.00,1,,95
2014-3-6,64,49,33,36,29,17,92,56,19,30.19,30.10,30.03,10,9,6,13,3,17,0.00,3,,19
2014-3-7,64,46,28,39,33,28,100,67,34,30.09,30.01,29.88,10,5,0,14,4,18,0.00,0,Fog,124
2014-3-8,53,45,36,52,45,35,100,90,80,30.21,30.10,29.96,10,5,1,10,3,15,0.01,7,Rain,21
2014-3-9,55,50,44,48,45,43,100,86,72,30.31,30.23,30.17,10,5,2,8,2,12,0.00,8,,196
2014-3-10,72,56,39,48,44,39,100,67,34,30.17,30.05,29.86,10,5,0,16,3,19,0.00,2,Fog,212
2014-3-11,78,60,42,57,51,41,100,72,43,29.84,29.67,29.50,10,8,3,18,5,25,0.00,1,,188
2014-3-12,61,47,33,43,29,20,89,55,21,30.24,30.06,29.67,10,10,10,23,10,34,0.00,1,,344
2014-3-13,66,47,28,37,31,27,100,65,23,30.30,30.19,30.07,10,9,3,14,2,22,0.00,0,,244
2014-3-14,67,50,32,50,43,31,100,76,52,30.12,30.05,29.99,10,9,5,15,4,19,0.00,4,,185
2014-3-15,64,56,48,61,57,48,100,89,78,30.01,29.81,29.64,10,5,1,17,6,25,1.05,7,Rain,104
2014-3-16,59,49,39,58,46,31,100,83,65,30.00,29.76,29.62,10,8,0,23,11,33,T,8,Fog,307
2014-3-17,58,47,35,41,35,31,96,74,51,30.00,29.90,29.77,10,10,9,14,4,18,0.00,4,,312
2014-3-18,76,56,36,49,42,35,100,67,33,29.78,29.71,29.60,10,9,5,20,7,29,0.00,0,,135
2014-3-19,65,53,40,48,35,28,93,61,29,30.18,30.05,29.80,10,10,10,15,6,23,0.00,0,,327
2014-3-20,69,49,29,39,31,23,100,60,20,30.23,30.15,30.01,10,6,0,12,2,16,0.00,0,Fog,201
2014-3-21,78,56,34,53,42,33,92,60,28,30.03,29.92,29.81,10,10,8,16,4,21,0.00,2,,171
2014-3-22,61,57,53,58,51,44,100,78,55,30.08,30.01,29.89,10,8,2,15,8,18,0.19,8,Rain-Thunderstorm,66
2014-3-23,61,49,37,51,41,34,92,64,36,30.33,30.21,30.09,10,9,2,26,5,35,0.06,5,Rain-Thunderstorm,44
2014-3-24,62,48,33,41,34,29,100,66,32,30.27,30.16,30.04,10,10,10,13,3,17,0.00,0,,107
2014-3-25,58,46,34,36,29,22,100,65,30,30.37,30.27,30.16,10,8,4,17,6,24,0.00,0,,357
2014-3-26,58,44,30,47,33,25,92,64,36,30.29,30.17,29.99,10,8,1,17,6,22,0.01,3,Rain,121
2014-3-27,67,60,53,63,54,38,100,77,54,29.98,29.82,29.71,10,6,2,10,5,15,0.05,8,Rain-Thunderstorm,155
2014-3-28,77,66,54,67,62,52,100,84,68,29.96,29.82,29.76,10,5,1,16,6,23,0.02,6,Rain-Thunderstorm,88
2014-3-29,71,56,40,51,41,29,100,61,22,30.23,30.13,30.00,10,6,0,21,5,27,0.00,0,Fog,291
2014-3-30,74,54,34,42,38,34,100,65,29,30.25,30.18,30.01,10,6,0,15,5,20,0.00,0,Fog,123
2014-3-31,68,56,43,58,51,42,100,79,58,30.02,29.95,29.86,10,6,0,17,4,21,0.05,3,Fog-Rain-Thunderstorm,114